Time;durP1;ratioP1;P1;durP2;ratioP2;P2;SDS_P1;SDS_P2;PMS_P1;PMS_P2;Temp;Humidity;BMP_temperature;BMP_pressure;BME280_temperature;BME280_humidity;BME280_pressure;Samples;Min_cycle;Max_cycle;Signal;HPM_P1;HPM_P2
2021/12/02 00:01:21;;;;;;;1.65;1.20;;;;;;;2.93;48.16;97734.41;3390657;29;20119;-72
2021/12/02 00:03:05;;;;;;;1.63;1.38;;;;;;;2.94;48.34;97741.28;3391173;29;20415;-73
2021/12/02 00:04:45;;;;;;;2.67;1.20;;;;;;;2.96;48.25;97743.72;3391918;29;20096;-74
2021/12/02 00:06:27;;;;;;;1.67;1.55;;;;;;;2.90;48.30;97737.41;3390869;29;20084;-74
2021/12/02 00:08:07;;;;;;;2.60;1.70;;;;;;;2.93;48.46;97752.81;3389067;29;20473;-75
2021/12/02 00:09:48;;;;;;;1.60;1.50;;;;;;;2.91;48.25;97741.66;3390337;29;21269;-74
2021/12/02 00:11:30;;;;;;;1.80;1.10;;;;;;;2.92;48.42;97751.19;3390373;29;20050;-72
2021/12/02 00:13:11;;;;;;;1.27;1.17;;;;;;;2.93;48.37;97758.06;3390426;29;20047;-71
2021/12/02 00:14:52;;;;;;;1.35;1.20;;;;;;;2.92;48.51;97753.84;3390245;29;20465;-73
2021/12/02 00:16:50;;;;;;;1.63;1.25;;;;;;;2.92;48.54;97753.84;3390304;29;20535;-72
2021/12/02 00:21:03;;;;;;;1.27;1.13;;;;;;;2.92;48.25;97761.72;3389357;29;20067;-72
2021/12/02 00:22:34;;;;;;;3.47;1.45;;;;;;;2.91;48.33;97767.16;3389535;29;20036;-72
2021/12/02 00:24:18;;;;;;;1.10;1.10;;;;;;;2.88;48.45;97765.72;3389490;29;20036;-74
2021/12/02 00:26:05;;;;;;;1.27;1.17;;;;;;;2.89;48.41;97770.00;3390064;29;20396;-73
2021/12/02 00:27:47;;;;;;;2.63;1.27;;;;;;;2.89;48.52;97774.44;3389743;29;20127;-73
2021/12/02 00:29:29;;;;;;;1.20;1.10;;;;;;;2.89;48.40;97775.28;3390171;29;20040;-73
2021/12/02 00:31:16;;;;;;;;;;;;;;;2.99;48.50;97774.91;3390662;29;20036;-73
2021/12/02 00:32:57;;;;;;;0.98;0.98;;;;;;;2.92;48.34;97774.03;3389758;29;19919;-73
2021/12/02 00:34:44;;;;;;;2.20;1.20;;;;;;;2.92;48.40;97779.31;3390300;29;20095;-74
2021/12/02 00:36:26;;;;;;;1.63;1.17;;;;;;;2.89;48.38;97784.97;3390369;29;20122;-73
2021/12/02 00:38:07;;;;;;;2.45;1.27;;;;;;;2.87;48.53;97777.28;3390036;29;20503;-73
2021/12/02 00:39:48;;;;;;;1.20;1.10;;;;;;;2.86;48.60;97778.25;3389233;29;20039;-74
2021/12/02 00:41:29;;;;;;;2.50;1.73;;;;;;;2.87;48.54;97793.06;3389835;29;20040;-72
2021/12/02 00:43:10;;;;;;;2.20;1.58;;;;;;;2.88;48.72;97791.25;3390278;29;20044;-74
2021/12/02 00:44:50;;;;;;;1.23;0.90;;;;;;;2.89;48.71;97796.31;3402266;29;20135;-73
2021/12/02 00:46:33;;;;;;;1.40;1.20;;;;;;;2.89;48.96;97804.22;3392436;29;20570;-76
2021/12/02 00:48:15;;;;;;;3.33;1.20;;;;;;;2.89;48.80;97806.84;3388836;29;20119;-73
2021/12/02 00:49:55;;;;;;;1.77;1.30;;;;;;;2.88;48.98;97809.66;3387845;29;20100;-73
2021/12/02 00:51:37;;;;;;;3.45;1.63;;;;;;;2.88;48.74;97820.97;3389700;29;20131;-73
2021/12/02 00:53:20;;;;;;;1.90;1.70;;;;;;;2.91;48.77;97817.97;3388553;29;20059;-72
2021/12/02 00:55:03;;;;;;;2.70;1.25;;;;;;;2.92;48.94;97827.50;3389898;29;20040;-72
2021/12/02 00:56:43;;;;;;;1.15;1.13;;;;;;;2.94;48.97;97830.72;3388865;29;20503;-74
2021/12/02 00:58:24;;;;;;;1.60;1.40;;;;;;;2.94;48.86;97830.72;3389981;29;20052;-73
2021/12/02 01:00:05;;;;;;;1.45;0.90;;;;;;;2.95;48.84;97832.38;3389748;29;20100;-72
2021/12/02 01:01:48;;;;;;;1.48;1.15;;;;;;;2.97;48.83;97827.75;3389320;29;20055;-73
2021/12/02 01:03:34;;;;;;;1.63;1.15;;;;;;;2.96;48.86;97834.00;3391991;29;20079;-74
2021/12/02 01:05:15;;;;;;;1.88;1.70;;;;;;;2.96;48.69;97830.56;3392948;29;20047;-75
2021/12/02 01:06:56;;;;;;;1.70;1.17;;;;;;;2.95;48.79;97840.28;3389880;29;20036;-73
2021/12/02 01:08:37;;;;;;;1.05;1.02;;;;;;;2.91;48.83;97831.13;3389369;29;20384;-72
2021/12/02 01:10:21;;;;;;;1.13;0.80;;;;;;;2.92;48.87;97832.75;3389161;29;20068;-71
2021/12/02 01:12:02;;;;;;;4.05;1.30;;;;;;;2.93;48.81;97841.47;3389444;29;20047;-73
2021/12/02 01:13:43;;;;;;;1.35;1.25;;;;;;;2.92;48.98;97845.09;3388905;29;20060;-73
2021/12/02 01:15:25;;;;;;;1.13;1.02;;;;;;;2.90;48.87;97834.75;3389491;29;20046;-73
2021/12/02 01:17:06;;;;;;;0.98;0.98;;;;;;;2.88;48.90;97849.94;3389517;29;20361;-74
2021/12/02 01:18:47;;;;;;;1.40;1.20;;;;;;;2.89;48.84;97841.03;3389637;29;20123;-72
2021/12/02 01:20:28;;;;;;;3.08;1.10;;;;;;;2.90;48.83;97847.91;3389693;29;20076;-72
2021/12/02 01:22:10;;;;;;;0.88;0.88;;;;;;;2.89;49.05;97846.31;3388533;29;20569;-72
2021/12/02 01:23:55;;;;;;;2.40;1.13;;;;;;;2.92;48.83;97850.34;3399463;29;20051;-72
2021/12/02 01:25:36;;;;;;;1.35;1.05;;;;;;;2.89;49.02;97846.31;3387806;29;20047;-73
2021/12/02 01:27:20;;;;;;;1.25;1.00;;;;;;;2.94;48.94;97850.97;3389372;29;20055;-73
2021/12/02 01:29:03;;;;;;;1.13;0.75;;;;;;;2.95;49.12;97858.69;3389448;29;20180;-73
2021/12/02 01:30:45;;;;;;;1.42;1.05;;;;;;;2.96;49.06;97856.88;3389569;29;20044;-72
2021/12/02 01:32:27;;;;;;;2.47;1.13;;;;;;;2.97;48.81;97863.75;3388465;29;20047;-71
2021/12/02 01:34:08;;;;;;;;;;;;;;;3.08;48.99;97862.44;3386205;29;20140;-71
2021/12/02 01:35:50;;;;;;;0.80;0.80;;;;;;;3.01;48.76;97873.69;3388908;29;20397;-72
2021/12/02 01:37:31;;;;;;;;;;;;;;;3.03;48.74;97866.44;3389783;29;20040;-70
2021/12/02 01:39:11;;;;;;;2.00;0.90;;;;;;;2.98;48.66;97873.28;3389595;29;19928;-72
2021/12/02 01:40:53;;;;;;;1.25;1.15;;;;;;;2.96;48.76;97872.66;3389326;29;20079;-71
2021/12/02 01:42:39;;;;;;;1.50;1.05;;;;;;;2.95;48.83;97878.94;3389256;29;20519;-72
2021/12/02 01:44:22;;;;;;;2.05;0.90;;;;;;;2.90;48.91;97873.44;3389408;29;20468;-71
2021/12/02 01:46:03;;;;;;;1.13;0.77;;;;;;;2.91;48.81;97867.97;3389292;29;20048;-72
2021/12/02 01:47:48;;;;;;;1.10;0.98;;;;;;;2.92;48.64;97869.59;3389392;29;20075;-73
2021/12/02 01:49:32;;;;;;;1.65;1.52;;;;;;;2.93;48.73;97881.75;3388045;29;20090;-72
2021/12/02 01:51:13;;;;;;;1.17;0.90;;;;;;;2.92;48.71;97879.28;3389533;29;20103;-71
2021/12/02 01:53:01;;;;;;;2.22;0.93;;;;;;;2.96;48.82;97875.28;3375257;29;20048;-71
2021/12/02 01:54:46;;;;;;;5.95;1.38;;;;;;;2.95;48.78;97874.47;3387345;29;20040;-73
2021/12/02 01:56:27;;;;;;;0.77;0.77;;;;;;;2.95;48.89;97874.47;3389415;29;20062;-72
2021/12/02 01:58:15;;;;;;;1.15;1.00;;;;;;;2.99;48.94;97870.44;3388225;29;20062;-71
2021/12/02 02:00:22;;;;;;;1.50;1.40;;;;;;;3.05;48.84;97879.41;3387787;29;20158;-72
2021/12/02 02:02:05;;;;;;;1.23;0.70;;;;;;;3.00;48.58;97877.34;3387694;29;20408;-73
2021/12/02 02:03:47;;;;;;;1.45;0.90;;;;;;;3.00;48.66;97876.53;3389200;29;20048;-73
2021/12/02 02:05:28;;;;;;;1.30;0.80;;;;;;;3.00;48.57;97887.06;3388260;29;20338;-72
2021/12/02 02:07:15;;;;;;;0.90;0.90;;;;;;;2.98;48.53;97889.88;3388924;29;20099;-74
2021/12/02 02:08:58;;;;;;;0.80;0.80;;;;;;;2.98;48.58;97889.88;3388888;29;20092;-75
2021/12/02 02:10:43;;;;;;;1.20;1.00;;;;;;;2.97;48.53;97882.16;3374932;29;20036;-71
2021/12/02 02:12:24;;;;;;;0.68;0.68;;;;;;;2.97;48.55;97888.25;3386598;29;20064;-72
2021/12/02 02:14:09;;;;;;;3.15;0.98;;;;;;;2.97;48.33;97885.63;3389010;29;20463;-74
2021/12/02 02:15:52;;;;;;;1.85;0.85;;;;;;;2.94;48.60;97893.88;3389131;29;20080;-74
2021/12/02 02:17:41;;;;;;;3.03;1.23;;;;;;;2.95;48.42;97887.63;3388784;29;20033;-73
2021/12/02 02:19:23;;;;;;;1.00;0.90;;;;;;;2.93;48.48;97892.25;3387436;29;20095;-72
2021/12/02 02:21:06;;;;;;;1.30;1.20;;;;;;;2.95;48.49;97900.78;3399566;29;20085;-73
2021/12/02 02:22:47;;;;;;;0.70;0.70;;;;;;;2.95;48.63;97894.72;3391288;29;20044;-72
2021/12/02 02:24:28;;;;;;;1.38;0.98;;;;;;;2.93;48.69;97902.78;3388172;29;20048;-75
2021/12/02 02:26:09;;;;;;;0.63;0.63;;;;;;;2.93;48.59;97902.78;3388749;29;20146;-74
2021/12/02 02:27:50;;;;;;;0.90;0.85;;;;;;;2.93;48.64;97896.72;3400887;29;20418;-73
2021/12/02 02:29:30;;;;;;;0.70;0.70;;;;;;;2.93;48.52;97900.16;3391193;29;20123;-73
2021/12/02 02:31:11;;;;;;;1.50;0.70;;;;;;;2.94;48.53;97904.41;3388940;29;20134;-72
2021/12/02 02:32:52;;;;;;;1.85;1.00;;;;;;;2.95;48.50;97908.69;3388872;29;20408;-72
2021/12/02 02:34:34;;;;;;;1.02;1.00;;;;;;;2.95;48.57;97910.50;3388697;29;20048;-73
2021/12/02 02:36:15;;;;;;;0.93;0.70;;;;;;;2.94;48.56;97914.13;3388961;29;20083;-72
2021/12/02 02:37:56;;;;;;;1.05;1.05;;;;;;;2.95;48.20;97906.06;3388277;29;20044;-73
2021/12/02 02:39:38;;;;;;;0.85;0.77;;;;;;;2.95;48.34;97903.41;3388115;29;20389;-73
2021/12/02 02:41:20;;;;;;;0.52;0.52;;;;;;;2.95;48.25;97915.75;3389025;29;20511;-73
2021/12/02 02:43:07;;;;;;;1.40;0.70;;;;;;;2.93;48.19;97918.56;3389374;29;20044;-73
2021/12/02 02:44:48;;;;;;;0.65;0.65;;;;;;;2.94;48.26;97927.28;3388850;29;20401;-73
2021/12/02 02:46:40;;;;;;;0.77;0.75;;;;;;;2.93;48.24;97923.84;3389329;29;20114;-71
2021/12/02 02:48:21;;;;;;;0.90;0.82;;;;;;;2.95;48.41;97926.28;3389680;29;20044;-71
2021/12/02 02:50:02;;;;;;;1.17;0.88;;;;;;;2.92;48.35;97913.50;3389441;29;20579;-72
2021/12/02 02:51:44;;;;;;;0.95;0.80;;;;;;;2.96;48.25;97918.19;3388880;29;20052;-72
2021/12/02 02:53:25;;;;;;;0.85;0.60;;;;;;;2.97;48.29;97917.22;3389069;29;20046;-72
2021/12/02 02:55:07;;;;;;;1.20;0.80;;;;;;;2.95;47.96;97913.94;3388079;29;20075;-71
2021/12/02 02:56:55;;;;;;;0.70;0.70;;;;;;;2.95;48.03;97916.56;3389239;29;20048;-71
2021/12/02 03:00:45;;;;;;;0.80;0.80;;;;;;;2.95;47.90;97916.56;3388592;29;20051;-71
2021/12/02 03:06:24;;;;;;;3.30;0.98;;;;;;;2.92;47.82;97927.47;3388773;29;20044;-71
2021/12/02 03:08:18;;;;;;;1.17;1.08;;;;;;;2.87;47.73;97924.59;3386950;29;20071;-70
2021/12/02 03:13:54;;;;;;;1.08;0.98;;;;;;;2.89;47.65;97935.75;3388514;29;20044;-71
2021/12/02 03:17:42;;;;;;;0.70;0.70;;;;;;;2.90;47.73;97934.75;3401641;29;20103;-73
2021/12/02 03:19:25;;;;;;;0.70;0.70;;;;;;;2.88;47.54;97936.75;3388806;29;20039;-72
2021/12/02 03:21:20;;;;;;;0.70;0.70;;;;;;;2.90;47.75;97940.00;3387740;29;20393;-71
2021/12/02 03:23:01;;;;;;;0.70;0.70;;;;;;;2.86;47.68;97936.13;3388376;29;20131;-71
2021/12/02 03:24:42;;;;;;;1.30;0.73;;;;;;;2.89;47.63;97948.91;3388394;29;20380;-72
2021/12/02 03:26:23;;;;;;;0.90;0.77;;;;;;;2.87;47.31;97956.19;3387078;29;20059;-73
2021/12/02 03:28:04;;;;;;;0.73;0.70;;;;;;;2.81;47.58;97946.38;3386825;29;20110;-73
2021/12/02 03:29:45;;;;;;;0.80;0.80;;;;;;;2.84;47.50;97948.66;3381016;29;20041;-72
2021/12/02 03:31:26;;;;;;;1.30;0.75;;;;;;;2.84;47.63;97951.28;3388110;29;20036;-74
2021/12/02 03:33:07;;;;;;;0.70;0.70;;;;;;;2.81;47.32;97957.75;3386316;29;20055;-74
2021/12/02 03:34:47;;;;;;;0.80;0.80;;;;;;;2.81;47.45;97949.84;3388251;29;20032;-73
2021/12/02 03:36:28;;;;;;;0.90;0.70;;;;;;;2.81;47.42;97951.66;3388230;29;20036;-73
2021/12/02 03:38:09;;;;;;;1.65;0.70;;;;;;;2.82;47.20;97950.66;3387913;29;20591;-73
2021/12/02 03:39:50;;;;;;;2.78;0.70;;;;;;;2.82;47.37;97955.94;3388362;29;20039;-73
2021/12/02 03:41:31;;;;;;;2.15;0.93;;;;;;;2.80;47.33;97961.34;3387905;29;20119;-72
2021/12/02 03:43:12;;;;;;;0.57;0.57;;;;;;;2.79;47.37;97956.31;3386761;29;20051;-73
2021/12/02 03:44:52;;;;;;;0.95;0.93;;;;;;;2.76;47.31;97959.28;3387844;29;20511;-74
2021/12/02 03:46:34;;;;;;;0.70;0.60;;;;;;;2.77;47.27;97960.94;3387768;29;20451;-74
2021/12/02 03:48:14;;;;;;;1.13;0.73;;;;;;;2.78;47.28;97967.81;3387521;29;20327;-73
2021/12/02 03:49:55;;;;;;;1.25;0.93;;;;;;;2.79;47.11;97966.81;3386989;29;20044;-73
2021/12/02 03:51:37;;;;;;;0.65;0.65;;;;;;;2.79;47.24;97970.28;3386756;29;20040;-73
2021/12/02 03:53:17;;;;;;;0.80;0.80;;;;;;;2.78;47.19;97968.63;3387331;29;20070;-74
2021/12/02 03:54:59;;;;;;;0.73;0.73;;;;;;;2.76;47.03;97961.91;3387542;29;20048;-73
2021/12/02 03:56:39;;;;;;;0.90;0.90;;;;;;;2.78;47.09;97962.56;3387120;29;20404;-73
2021/12/02 03:58:20;;;;;;;0.93;0.70;;;;;;;2.76;46.96;97972.44;3387815;29;20056;-72
2021/12/02 04:00:03;;;;;;;1.42;0.85;;;;;;;2.72;47.04;97976.47;3387564;29;20040;-74
2021/12/02 04:01:53;;;;;;;0.80;0.80;;;;;;;2.72;47.08;97977.28;3387265;29;20044;-73
2021/12/02 04:03:34;;;;;;;1.92;0.90;;;;;;;2.72;47.13;97979.91;3387443;29;20032;-73
2021/12/02 04:05:15;;;;;;;2.15;0.88;;;;;;;2.73;47.22;97980.72;3399675;29;20127;-72
2021/12/02 04:06:55;;;;;;;0.85;0.70;;;;;;;2.73;47.02;97980.72;3390221;29;20036;-72
2021/12/02 04:10:21;;;;;;;0.77;0.77;;;;;;;2.69;47.09;97987.34;3387016;29;20096;-73
2021/12/02 04:12:12;;;;;;;1.50;0.80;;;;;;;2.70;47.39;97987.16;3386332;29;20048;-72
2021/12/02 04:14:05;;;;;;;1.55;1.08;;;;;;;2.71;47.13;97990.59;3384073;29;20100;-71
2021/12/02 04:15:53;;;;;;;0.90;0.80;;;;;;;2.71;47.25;97990.59;3383153;29;20087;-71
2021/12/02 04:17:43;;;;;;;0.88;0.70;;;;;;;2.70;47.30;97997.69;3388542;29;20079;-71
2021/12/02 04:19:25;;;;;;;1.77;0.90;;;;;;;2.69;47.35;98000.50;3389441;29;20580;-73
2021/12/02 04:21:05;;;;;;;1.05;0.93;;;;;;;2.68;47.42;97998.88;3390459;29;20050;-73
2021/12/02 04:22:46;;;;;;;1.13;1.00;;;;;;;2.69;47.38;98009.22;3390820;29;20044;-71
2021/12/02 04:24:27;;;;;;;1.40;0.90;;;;;;;2.67;47.31;98005.13;3390512;29;20040;-71
2021/12/02 04:26:08;;;;;;;0.80;0.80;;;;;;;2.70;47.46;98012.66;3389291;29;20051;-73
2021/12/02 04:27:49;;;;;;;1.40;0.90;;;;;;;2.70;47.36;98018.72;3389463;29;20070;-71
2021/12/02 04:29:30;;;;;;;0.80;0.80;;;;;;;2.71;47.44;98014.25;3389346;29;20040;-71
2021/12/02 04:31:11;;;;;;;1.63;0.95;;;;;;;2.72;47.12;98015.91;3388030;29;20109;-71
2021/12/02 04:32:55;;;;;;;2.20;0.77;;;;;;;2.72;47.21;98011.47;3389403;29;20078;-70
2021/12/02 04:34:36;;;;;;;1.00;1.00;;;;;;;2.73;47.50;98007.81;3383252;29;20103;-70
2021/12/02 04:36:17;;;;;;;1.30;1.20;;;;;;;2.71;47.37;98015.09;3402149;29;20070;-72
2021/12/02 04:37:57;;;;;;;1.60;1.00;;;;;;;2.72;47.68;98005.41;3392409;29;20063;-72
2021/12/02 04:39:39;;;;;;;1.85;0.80;;;;;;;2.72;47.65;98013.28;3390430;29;20048;-70
2021/12/02 04:41:20;;;;;;;1.98;1.58;;;;;;;2.71;47.48;98012.47;3389618;29;20119;-73
2021/12/02 04:43:00;;;;;;;2.60;1.55;;;;;;;2.68;47.52;98004.13;3389626;29;20078;-72
2021/12/02 04:44:41;;;;;;;1.15;1.00;;;;;;;2.70;47.41;98012.66;3402303;29;20519;-71
2021/12/02 04:46:22;;;;;;;1.73;1.05;;;;;;;2.69;47.55;98011.03;3392208;29;20040;-73
2021/12/02 04:48:03;;;;;;;1.13;1.00;;;;;;;2.65;47.74;98007.94;3389801;29;20051;-72
2021/12/02 04:49:44;;;;;;;1.20;1.10;;;;;;;2.65;47.56;98005.31;3401106;29;20040;-76
2021/12/02 04:51:25;;;;;;;1.38;1.10;;;;;;;2.65;47.63;98007.13;3381060;29;20049;-73
2021/12/02 04:53:05;;;;;;;1.30;1.20;;;;;;;2.62;47.67;98011.75;3376931;29;20044;-73
2021/12/02 04:54:46;;;;;;;1.02;1.00;;;;;;;2.61;47.83;98007.50;3382238;29;20036;-74
2021/12/02 04:56:27;;;;;;;0.95;0.93;;;;;;;2.59;47.64;98014.75;3389343;29;20043;-75
2021/12/02 04:58:08;;;;;;;1.00;0.90;;;;;;;2.58;47.61;98018.41;3401514;29;20594;-73
2021/12/02 04:59:48;;;;;;;1.42;1.10;;;;;;;2.60;47.74;98029.53;3388776;29;20138;-76
2021/12/02 05:01:29;;;;;;;1.55;1.10;;;;;;;2.68;47.97;98025.16;3388917;29;20044;-74
2021/12/02 05:03:10;;;;;;;2.20;1.38;;;;;;;2.80;48.62;98028.94;3389695;29;20056;-75
2021/12/02 05:04:52;;;;;;;3.42;1.20;;;;;;;2.91;48.86;98032.91;3389988;29;20068;-75
2021/12/02 05:06:32;;;;;;;5.68;1.45;;;;;;;3.01;48.97;98042.13;3389797;29;20036;-75
2021/12/02 05:08:13;;;;;;;1.92;1.10;;;;;;;3.12;49.28;98034.72;3389840;29;20047;-75
2021/12/02 05:09:54;;;;;;;4.07;1.27;;;;;;;3.26;49.43;98039.13;3389398;29;20504;-73
2021/12/02 05:11:37;;;;;;;3.42;1.73;;;;;;;3.41;49.51;98034.63;3388809;29;20063;-74
2021/12/02 05:13:19;;;;;;;4.65;1.45;;;;;;;3.56;49.56;98028.44;3401961;29;20043;-74
2021/12/02 05:15:01;;;;;;;1.38;1.00;;;;;;;3.63;49.56;98039.84;3391679;29;20044;-75
2021/12/02 05:16:43;;;;;;;1.83;1.10;;;;;;;3.73;49.63;98035.06;3389702;29;20475;-75
2021/12/02 05:18:24;;;;;;;9.18;1.55;;;;;;;3.83;49.50;98040.81;3389530;29;20134;-75
2021/12/02 05:20:05;;;;;;;4.60;1.40;;;;;;;3.88;49.43;98037.59;3389061;29;20036;-74
2021/12/02 05:21:46;;;;;;;2.38;1.05;;;;;;;3.93;49.35;98043.91;3388879;29;20055;-77
2021/12/02 05:23:27;;;;;;;3.80;2.05;;;;;;;4.00;49.27;98045.78;3388608;29;20083;-75
2021/12/02 05:25:08;;;;;;;1.85;1.27;;;;;;;4.05;49.56;98051.28;3389316;29;20123;-76
2021/12/02 05:26:49;;;;;;;1.97;1.57;;;;;;;4.13;49.45;98045.84;3389617;29;20074;-73
2021/12/02 05:28:30;;;;;;;2.53;1.50;;;;;;;4.15;49.54;98044.66;3389748;29;20797;-75
2021/12/02 05:30:11;;;;;;;3.75;1.30;;;;;;;4.14;49.53;98045.66;3388976;29;20408;-71
2021/12/02 05:31:51;;;;;;;2.97;1.42;;;;;;;4.05;49.46;98048.66;3389695;29;20048;-73
2021/12/02 05:33:32;;;;;;;5.07;1.77;;;;;;;4.04;49.27;98047.84;3389135;29;20530;-71
2021/12/02 05:35:13;;;;;;;1.40;1.30;;;;;;;3.93;49.23;98049.19;3388238;29;20484;-74
2021/12/02 05:36:54;;;;;;;7.78;1.55;;;;;;;3.87;49.34;98047.34;3389294;29;20138;-74
2021/12/02 05:38:35;;;;;;;1.50;1.30;;;;;;;3.80;49.10;98064.91;3388792;29;20044;-73
2021/12/02 05:40:15;;;;;;;1.85;1.33;;;;;;;3.70;48.94;98061.78;3389615;29;20130;-73
2021/12/02 05:41:56;;;;;;;3.10;1.20;;;;;;;3.62;48.86;98064.56;3388957;29;20055;-72
2021/12/02 05:43:37;;;;;;;1.10;1.00;;;;;;;3.54;48.69;98067.31;3389327;29;20062;-70
2021/12/02 05:45:17;;;;;;;1.80;1.42;;;;;;;3.46;48.65;98065.66;3389541;29;20040;-71
2021/12/02 05:46:58;;;;;;;1.75;1.27;;;;;;;3.37;48.70;98077.31;3389046;29;20087;-73
2021/12/02 05:48:40;;;;;;;2.22;1.35;;;;;;;3.30;48.36;98077.22;3388129;29;20103;-72
2021/12/02 05:50:21;;;;;;;1.77;0.90;;;;;;;3.27;48.13;98093.41;3388939;29;20500;-72
2021/12/02 05:52:01;;;;;;;3.13;1.00;;;;;;;3.21;48.22;98089.72;3388946;29;20040;-72
2021/12/02 05:53:42;;;;;;;1.38;1.20;;;;;;;3.18;48.11;98105.06;3389144;29;20044;-71
2021/12/02 05:55:23;;;;;;;1.98;1.80;;;;;;;3.14;48.01;98098.53;3389109;29;20477;-71
2021/12/02 05:57:04;;;;;;;3.33;1.40;;;;;;;3.10;48.02;98087.56;3388445;29;20500;-72
2021/12/02 05:58:45;;;;;;;1.52;1.27;;;;;;;3.07;47.72;98090.56;3388938;29;20130;-72
2021/12/02 06:00:26;;;;;;;1.05;1.02;;;;;;;3.01;47.59;98086.84;3401149;29;20545;-72
2021/12/02 06:02:07;;;;;;;2.38;1.10;;;;;;;2.99;47.62;98086.22;3391209;29;20040;-72
2021/12/02 06:03:48;;;;;;;6.30;2.50;;;;;;;2.98;47.39;98097.75;3401055;29;20054;-72
2021/12/02 06:05:29;;;;;;;1.23;0.90;;;;;;;2.96;47.28;98094.50;3391195;29;20336;-73
2021/12/02 06:07:10;;;;;;;5.10;1.15;;;;;;;2.94;47.23;98091.22;3388757;29;20091;-72
2021/12/02 06:08:51;;;;;;;1.48;1.38;;;;;;;2.94;47.10;98098.31;3401000;29;20485;-74
2021/12/02 06:10:32;;;;;;;1.42;1.33;;;;;;;2.93;46.94;98101.94;3391338;29;20083;-72
2021/12/02 06:12:13;;;;;;;1.33;1.10;;;;;;;2.94;46.98;98107.00;3389082;29;20084;-72
2021/12/02 06:13:54;;;;;;;2.65;1.20;;;;;;;2.95;47.01;98106.03;3389434;29;20055;-72
2021/12/02 06:15:38;;;;;;;1.27;1.02;;;;;;;2.95;46.58;98111.28;3400759;29;20051;-70
2021/12/02 06:17:19;;;;;;;2.28;1.13;;;;;;;2.94;46.58;98104.38;3390943;29;20513;-73
2021/12/02 06:18:59;;;;;;;2.67;1.60;;;;;;;2.95;46.65;98113.94;3388876;29;20044;-73
2021/12/02 06:20:40;;;;;;;2.58;1.50;;;;;;;2.95;46.41;98113.94;3389229;29;20645;-72
2021/12/02 06:22:21;;;;;;;3.00;1.33;;;;;;;2.94;46.45;98112.28;3389358;29;20464;-72
2021/12/02 06:24:04;;;;;;;3.47;1.02;;;;;;;2.92;46.31;98122.19;3389216;29;20052;-73
2021/12/02 06:25:45;;;;;;;1.67;0.98;;;;;;;2.90;46.19;98126.81;3389219;29;20048;-71
2021/12/02 06:27:25;;;;;;;1.25;1.08;;;;;;;2.88;46.09;98128.81;3389042;29;20133;-72
2021/12/02 06:29:06;;;;;;;1.25;1.02;;;;;;;2.86;46.01;98138.69;3389027;29;20059;-70
2021/12/02 06:30:47;;;;;;;2.30;1.40;;;;;;;2.84;46.11;98132.81;3389199;29;20201;-72
2021/12/02 06:32:28;;;;;;;2.03;1.27;;;;;;;2.79;46.20;98128.09;3388605;29;20054;-71
2021/12/02 06:34:09;;;;;;;2.33;1.90;;;;;;;2.78;45.98;98136.16;3388894;29;20155;-72
2021/12/02 06:35:49;;;;;;;0.75;0.75;;;;;;;2.77;45.94;98145.06;3388796;29;20422;-72
2021/12/02 06:37:30;;;;;;;1.90;1.27;;;;;;;2.72;45.90;98142.97;3401143;29;20538;-72
2021/12/02 06:39:11;;;;;;;1.23;1.13;;;;;;;2.71;45.90;98140.53;3391505;29;20051;-74
2021/12/02 06:40:52;;;;;;;1.48;1.38;;;;;;;2.70;45.84;98150.25;3389370;29;20415;-72
2021/12/02 06:42:32;;;;;;;3.47;1.25;;;;;;;2.70;45.95;98144.16;3388665;29;20047;-72
2021/12/02 06:44:13;;;;;;;1.05;1.05;;;;;;;2.70;45.75;98139.72;3388397;29;20051;-72
2021/12/02 06:45:54;;;;;;;2.25;1.30;;;;;;;2.62;45.76;98135.38;3388392;29;20048;-72
2021/12/02 06:47:39;;;;;;;3.38;1.25;;;;;;;2.71;45.61;98145.78;3388364;29;20476;-71
2021/12/02 06:49:20;;;;;;;1.23;1.13;;;;;;;2.71;45.74;98141.38;3388475;29;20043;-71
2021/12/02 06:51:00;;;;;;;3.30;1.52;;;;;;;2.74;45.65;98151.50;3387575;29;20032;-72
2021/12/02 06:52:41;;;;;;;1.58;1.00;;;;;;;2.75;45.72;98149.69;3387361;29;20040;-71
2021/12/02 06:54:22;;;;;;;1.83;1.10;;;;;;;2.77;45.74;98150.34;3388212;29;20511;-72
2021/12/02 06:56:03;;;;;;;0.82;0.82;;;;;;;2.80;45.64;98140.25;3388202;29;20083;-73
2021/12/02 06:57:45;;;;;;;4.93;1.63;;;;;;;2.83;45.55;98139.88;3388437;29;20044;-72
2021/12/02 06:59:25;;;;;;;1.77;1.20;;;;;;;2.88;45.66;98141.97;3387382;29;20044;-72
2021/12/02 07:01:06;;;;;;;4.18;1.20;;;;;;;2.89;45.51;98145.41;3384396;29;20048;-71
2021/12/02 07:02:48;;;;;;;5.68;1.38;;;;;;;2.88;45.71;98144.59;3388054;29;20079;-72
2021/12/02 07:04:28;;;;;;;2.05;1.20;;;;;;;2.92;45.47;98143.25;3400448;29;20439;-72
2021/12/02 07:06:09;;;;;;;2.75;1.40;;;;;;;2.91;45.62;98131.06;3390706;29;20048;-72
2021/12/02 07:07:50;;;;;;;1.73;1.25;;;;;;;2.91;45.25;98138.97;3388636;29;20051;-71
2021/12/02 07:09:31;;;;;;;5.00;1.45;;;;;;;2.95;45.28;98132.34;3388199;29;20415;-72
2021/12/02 07:11:12;;;;;;;1.80;1.42;;;;;;;2.96;45.30;98144.50;3388106;29;20052;-72
2021/12/02 07:12:57;;;;;;;3.13;1.48;;;;;;;2.97;45.57;98137.41;3388194;29;20055;-71
2021/12/02 07:14:38;;;;;;;3.33;1.70;;;;;;;3.01;45.18;98146.56;3386966;29;20535;-72
2021/12/02 07:16:20;;;;;;;1.45;1.35;;;;;;;3.01;45.42;98136.06;3387494;29;20052;-72
2021/12/02 07:18:01;;;;;;;;;;;;;;;3.13;45.41;98149.56;3388792;29;20104;-70
2021/12/02 07:19:42;;;;;;;2.05;1.42;;;;;;;3.06;45.13;98150.28;3387227;29;20366;-71
2021/12/02 07:21:24;;;;;;;4.32;1.30;;;;;;;3.05;45.18;98153.94;3387924;29;20142;-72
2021/12/02 07:23:05;;;;;;;;;;;;;;;3.17;45.37;98148.19;3388756;29;20578;-71
2021/12/02 07:24:46;;;;;;;2.35;1.90;;;;;;;3.09;45.08;98153.56;3388341;29;19964;-72
2021/12/02 07:26:26;;;;;;;4.55;1.40;;;;;;;3.05;44.99;98148.66;3388593;29;20419;-73
2021/12/02 07:28:11;;;;;;;1.25;1.02;;;;;;;3.05;45.05;98142.59;3387255;29;20535;-71
2021/12/02 07:29:52;;;;;;;2.45;1.38;;;;;;;2.98;45.05;98125.91;3387911;29;20516;-72
2021/12/02 07:31:33;;;;;;;3.38;1.52;;;;;;;3.04;45.00;98141.75;3387834;29;20051;-71
2021/12/02 07:33:14;;;;;;;2.13;1.50;;;;;;;3.09;45.07;98143.84;3387968;29;20051;-72
2021/12/02 07:34:59;;;;;;;4.10;1.20;;;;;;;3.09;44.81;98143.03;3388223;29;20040;-71
2021/12/02 07:36:40;;;;;;;1.30;1.00;;;;;;;3.13;45.05;98149.56;3387878;29;20055;-71
2021/12/02 07:38:21;;;;;;;4.60;1.73;;;;;;;3.15;45.04;98142.28;3387420;29;20126;-72
2021/12/02 07:40:03;;;;;;;1.52;1.17;;;;;;;3.19;45.04;98146.19;3386947;29;20040;-70
2021/12/02 07:41:44;;;;;;;2.53;1.27;;;;;;;3.22;44.95;98137.91;3387770;29;20119;-72
2021/12/02 07:43:26;;;;;;;3.03;1.40;;;;;;;3.22;45.00;98140.53;3388000;29;20055;-71
2021/12/02 07:45:08;;;;;;;1.55;1.25;;;;;;;3.25;44.93;98140.16;3387949;29;20099;-71
2021/12/02 07:46:49;;;;;;;2.30;1.23;;;;;;;3.27;44.91;98136.34;3388464;29;20080;-71
2021/12/02 07:48:30;;;;;;;4.55;1.38;;;;;;;3.30;44.97;98142.25;3390354;29;20385;-72
2021/12/02 07:50:13;;;;;;;2.70;1.67;;;;;;;3.33;44.86;98142.72;3402693;29;20046;-71
2021/12/02 07:51:58;;;;;;;2.42;2.22;;;;;;;3.35;44.83;98145.94;3392585;29;20487;-71
2021/12/02 07:53:40;;;;;;;5.78;1.27;;;;;;;3.40;44.91;98146.19;3390648;29;20055;-72
2021/12/02 07:55:22;;;;;;;3.60;1.40;;;;;;;3.42;44.93;98138.94;3390505;29;20539;-72
2021/12/02 07:57:03;;;;;;;3.55;1.88;;;;;;;3.45;44.93;98154.34;3389909;29;20071;-71
2021/12/02 07:58:46;;;;;;;3.42;1.40;;;;;;;3.49;44.79;98153.00;3390643;29;20044;-71
2021/12/02 08:00:28;;;;;;;2.05;1.52;;;;;;;3.52;45.02;98151.81;3390496;29;20040;-69
2021/12/02 08:02:16;;;;;;;4.20;2.03;;;;;;;3.53;44.94;98139.44;3391244;29;20064;-72
2021/12/02 08:03:56;;;;;;;1.58;1.38;;;;;;;3.55;44.78;98140.06;3393482;29;20036;-71
2021/12/02 08:05:38;;;;;;;2.22;1.67;;;;;;;3.52;44.97;98140.47;3392471;29;20290;-72
2021/12/02 08:07:18;;;;;;;4.80;1.50;;;;;;;3.56;45.02;98141.69;3391674;29;20115;-71
2021/12/02 08:08:59;;;;;;;7.93;1.48;;;;;;;3.48;44.91;98126.81;3403390;29;20435;-73
2021/12/02 08:10:40;;;;;;;3.55;1.50;;;;;;;3.55;44.90;98142.72;3393265;29;20100;-72
2021/12/02 08:12:20;;;;;;;2.65;1.70;;;;;;;3.55;44.90;98137.44;3389667;29;20150;-72
2021/12/02 08:14:01;;;;;;;5.65;1.60;;;;;;;3.54;44.88;98130.53;3389974;29;20036;-73
2021/12/02 08:15:42;;;;;;;2.15;1.63;;;;;;;3.52;44.99;98132.56;3390276;29;21164;-71
2021/12/02 08:17:23;;;;;;;4.03;1.65;;;;;;;3.54;44.88;98122.63;3390573;29;20040;-72
2021/12/02 08:19:04;;;;;;;5.28;2.35;;;;;;;3.54;44.95;98126.09;3402593;29;20075;-72
2021/12/02 08:20:45;;;;;;;6.13;2.00;;;;;;;3.59;44.90;98133.41;3393312;29;20090;-72
2021/12/02 08:22:25;;;;;;;1.95;1.80;;;;;;;3.59;44.91;98126.34;3390020;29;20047;-72
2021/12/02 08:24:06;;;;;;;3.72;1.98;;;;;;;3.62;45.00;98136.50;3389757;29;20559;-72